Aviation Digital Data Service (ADDS)

Output produced by METARs form (0054 UTC 20 April 2019)
found at http://www.aviationweather.gov/metar/data/
 
Forecast for: ORER (ERBIL INTL , IQ)
Text: TAF ORER 191600Z 1918/2018 21010KT 8000 -TSSHRA FEW025CB SCT030
Forecast period: 1800 UTC 19 April 2019 to 1800 UTC 20 April 2019
Forecast type: FROM: standard forecast or significant change
Winds: from the SSW (210 degrees) at 12 MPH (10 knots; 5.1 m/s)
Visibility: 5 miles (8 km)
Ceiling: at least 12,000 feet AGL
Clouds: few clouds at 2500 feet AGL
scattered clouds at 3000 feet AGL
Weather: SHRA TS  (rain showers, thunderstorm)